createdAt,value
2023-05-11T00:00:15.234Z,98816.38
2023-05-11T00:02:41.982Z,98817.78
2023-05-11T00:05:09.924Z,98825.00
2023-05-11T00:07:36.686Z,98828.66
2023-05-11T00:10:03.250Z,98818.44
2023-05-11T00:12:31.196Z,98806.88
2023-05-11T00:14:58.078Z,98809.78
2023-05-11T00:17:24.565Z,98802.00
2023-05-11T00:19:51.157Z,98788.00
2023-05-11T00:22:17.964Z,98781.41
2023-05-11T00:24:44.599Z,98773.38
2023-05-11T00:27:11.281Z,98762.06
2023-05-11T00:29:39.587Z,98757.31
2023-05-11T00:32:06.188Z,98750.13
2023-05-11T00:34:33.340Z,98738.81
2023-05-11T00:37:00.380Z,98729.16
2023-05-11T00:39:27.366Z,98736.97
2023-05-11T00:41:54.231Z,98754.44
2023-05-11T00:44:21.034Z,98763.31
2023-05-11T00:46:47.788Z,98769.47
2023-05-11T00:49:14.461Z,98762.88
2023-05-11T00:51:41.260Z,98771.72
2023-05-11T00:54:08.852Z,98777.06
2023-05-11T00:56:36.313Z,98771.72
2023-05-11T00:59:03.276Z,98778.91
2023-05-11T01:01:29.841Z,98783.22
2023-05-11T01:03:56.322Z,98777.47
2023-05-11T01:06:27.963Z,98779.31
2023-05-11T01:09:03.632Z,98783.00
2023-05-11T01:11:44.354Z,98786.06
2023-05-11T01:14:29.286Z,98788.75
2023-05-11T01:17:04.139Z,98793.25
2023-05-11T01:20:07.105Z,98792.84
2023-05-11T01:22:38.098Z,98794.09
2023-05-11T01:25:53.634Z,98805.19
2023-05-11T01:28:37.293Z,98811.91
2023-05-11T01:31:11.791Z,98814.59
2023-05-11T01:33:55.314Z,98820.34
2023-05-11T01:36:28.609Z,98819.31
2023-05-11T01:39:00.657Z,98809.44
2023-05-11T01:41:29.605Z,98810.50
2023-05-11T01:44:01.267Z,98808.63
2023-05-11T01:46:33.502Z,98806.56
2023-05-11T01:49:03.438Z,98809.88
2023-05-11T01:51:34.512Z,98795.72
2023-05-11T01:54:02.566Z,98786.06
2023-05-11T01:56:30.277Z,98764.47
2023-05-11T01:58:58.655Z,98759.97
2023-05-11T02:01:27.492Z,98745.59
2023-05-11T02:03:55.416Z,98746.59
2023-05-11T02:06:25.147Z,98744.13
2023-05-11T02:08:53.362Z,98739.19
2023-05-11T02:11:22.652Z,98742.88
2023-05-11T02:13:51.738Z,98739.38
2023-05-11T02:16:19.580Z,98743.31
2023-05-11T02:18:47.674Z,98744.56
2023-05-11T02:21:16.542Z,98744.16
2023-05-11T02:23:44.918Z,98753.22
2023-05-11T02:26:15.048Z,98756.28
2023-05-11T02:28:41.585Z,98769.66
2023-05-11T02:31:12.631Z,98769.25
2023-05-11T02:33:44.857Z,98764.09
2023-05-11T02:36:15.820Z,98761.84
2023-05-11T02:38:46.142Z,98762.22
2023-05-11T02:41:17.734Z,98762.88
2023-05-11T02:43:49.334Z,98751.34
2023-05-11T02:46:20.689Z,98752.56
2023-05-11T02:48:52.142Z,98751.75
2023-05-11T02:51:24.871Z,98745.19
2023-05-11T02:53:53.467Z,98744.78
2023-05-11T02:56:20.846Z,98747.66
2023-05-11T02:58:47.890Z,98740.88
2023-05-11T03:01:15.079Z,98743.53
2023-05-11T03:03:41.887Z,98738.00
2023-05-11T03:06:09.107Z,98740.00
2023-05-11T03:08:36.149Z,98735.31
2023-05-11T03:11:04.481Z,98746.41
2023-05-11T03:13:32.271Z,98743.09
2023-05-11T03:16:00.759Z,98741.25
2023-05-11T03:18:32.378Z,98750.50
2023-05-11T03:21:00.869Z,98768.59
2023-05-11T03:23:29.028Z,98777.66
2023-05-11T03:25:56.430Z,98793.47
2023-05-11T03:28:24.416Z,98792.44
2023-05-11T03:30:53.536Z,98803.94
2023-05-11T03:33:20.281Z,98804.56
2023-05-11T03:35:49.480Z,98808.06
2023-05-11T03:38:16.823Z,98806.19
2023-05-11T03:40:46.254Z,98801.47
2023-05-11T03:43:16.690Z,98801.47
2023-05-11T03:45:45.047Z,98803.31
2023-05-11T03:48:17.359Z,98804.50
2023-05-11T03:50:44.617Z,98812.09
2023-05-11T03:53:12.446Z,98828.94
2023-05-11T03:55:39.348Z,98842.75
2023-05-11T03:58:11.252Z,98847.94
2023-05-11T04:00:42.138Z,98853.31
2023-05-11T04:03:12.170Z,98857.84
2023-05-11T04:05:38.703Z,98861.13
2023-05-11T04:08:05.751Z,98861.94
2023-05-11T04:10:32.616Z,98845.69
2023-05-11T04:12:59.438Z,98838.47
2023-05-11T04:15:25.923Z,98832.28
2023-05-11T04:17:52.874Z,98825.91
2023-05-11T04:20:19.883Z,98814.19
2023-05-11T04:22:47.344Z,98811.31
2023-05-11T04:25:15.261Z,98806.41
2023-05-11T04:27:41.775Z,98808.00
2023-05-11T04:30:09.090Z,98815.47
2023-05-11T04:32:35.688Z,98819.34
2023-05-11T04:35:04.707Z,98825.13
2023-05-11T04:37:31.328Z,98837.84
2023-05-11T04:39:59.146Z,98827.38
2023-05-11T04:42:25.616Z,98817.50
2023-05-11T04:44:55.055Z,98819.34
2023-05-11T04:47:21.898Z,98814.19
2023-05-11T04:49:48.667Z,98814.84
2023-05-11T04:52:15.479Z,98814.00
2023-05-11T04:54:42.197Z,98810.31
2023-05-11T04:57:09.101Z,98822.06
2023-05-11T04:59:35.623Z,98821.44
2023-05-11T05:02:02.242Z,98820.03
2023-05-11T05:04:29.048Z,98827.81
2023-05-11T05:06:55.549Z,98838.72
2023-05-11T05:09:22.443Z,98841.41
2023-05-11T05:11:49.067Z,98841.81
2023-05-11T05:14:15.671Z,98840.22
2023-05-11T05:16:42.225Z,98834.66
2023-05-11T05:19:09.114Z,98833.63
2023-05-11T05:21:35.944Z,98836.53
2023-05-11T05:24:03.309Z,98852.16
2023-05-11T05:26:30.521Z,98863.88
2023-05-11T05:28:57.181Z,98881.78
2023-05-11T05:31:24.760Z,98895.97
2023-05-11T05:33:51.297Z,98912.47
2023-05-11T05:36:17.881Z,98921.31
2023-05-11T05:38:44.508Z,98922.53
2023-05-11T05:41:11.334Z,98937.50
2023-05-11T05:43:38.262Z,98937.75
2023-05-11T05:46:05.454Z,98945.34
2023-05-11T05:48:33.361Z,98954.19
2023-05-11T05:51:00.024Z,98944.97
2023-05-11T05:53:26.791Z,98945.63
2023-05-11T05:55:53.659Z,98940.09
2023-05-11T05:58:20.092Z,98955.50
2023-05-11T06:00:46.992Z,98962.13
2023-05-11T06:03:13.628Z,98966.50
2023-05-11T06:05:41.980Z,98981.25
2023-05-11T06:08:10.610Z,98994.22
2023-05-11T06:10:38.020Z,99007.47
2023-05-11T06:13:04.804Z,99024.34
2023-05-11T06:15:31.418Z,99033.19
2023-05-11T06:17:59.886Z,99028.84
2023-05-11T06:20:26.554Z,99024.50
2023-05-11T06:22:53.157Z,99011.72
2023-05-11T06:25:19.703Z,99003.06
2023-05-11T06:27:46.496Z,98987.66
2023-05-11T06:30:13.494Z,98993.56
2023-05-11T06:32:40.371Z,98981.94
2023-05-11T06:35:07.353Z,98996.34
2023-05-11T06:37:34.257Z,99002.91
2023-05-11T06:40:01.156Z,99003.97
2023-05-11T06:42:28.053Z,98978.63
2023-05-11T06:44:54.595Z,98978.84
2023-05-11T06:47:21.374Z,98965.63
2023-05-11T06:49:47.883Z,98969.34
2023-05-11T06:52:14.401Z,98980.09
2023-05-11T06:54:41.352Z,98973.13
2023-05-11T06:57:08.719Z,98966.25
2023-05-11T06:59:35.549Z,98965.44
2023-05-11T07:02:02.279Z,98939.56
2023-05-11T07:04:28.874Z,98949.72
2023-05-11T07:06:57.085Z,98951.72
2023-05-11T07:09:23.864Z,98947.63
2023-05-11T07:11:51.190Z,98944.78
2023-05-11T07:14:17.878Z,98939.44
2023-05-11T07:16:44.653Z,98946.59
2023-05-11T07:19:11.915Z,98930.31
2023-05-11T07:21:38.506Z,98925.03
2023-05-11T07:24:05.147Z,98929.78
2023-05-11T07:26:31.713Z,98949.47
2023-05-11T07:28:58.546Z,98962.31
2023-05-11T07:31:25.195Z,98966.03
2023-05-11T07:33:51.857Z,98977.81
2023-05-11T07:36:18.386Z,98977.44
2023-05-11T07:38:45.076Z,98966.84
2023-05-11T07:41:12.692Z,98956.78
2023-05-11T07:43:39.531Z,98949.81
2023-05-11T07:46:06.787Z,98945.94
2023-05-11T07:48:33.341Z,98959.34
2023-05-11T07:50:59.856Z,98980.59
2023-05-11T07:53:26.253Z,99018.91
2023-05-11T07:55:53.052Z,99024.88
2023-05-11T07:58:19.566Z,99046.72
2023-05-11T08:00:46.349Z,99079.88
2023-05-11T08:03:13.296Z,99074.09
2023-05-11T08:05:40.657Z,99066.75
2023-05-11T08:08:07.309Z,99058.84
2023-05-11T08:10:35.133Z,99051.94
2023-05-11T08:13:01.985Z,99048.88
2023-05-11T08:15:28.862Z,99051.09
2023-05-11T08:17:55.438Z,99056.56
2023-05-11T08:20:24.507Z,99067.81
2023-05-11T08:22:51.931Z,99059.72
2023-05-11T08:25:20.387Z,99038.84
2023-05-11T08:27:47.183Z,99012.53
2023-05-11T08:30:14.319Z,98986.22
2023-05-11T08:35:10.841Z,99016.59
2023-05-11T08:37:37.454Z,99035.56
2023-05-11T08:40:08.141Z,99034.69
2023-05-11T08:42:35.531Z,99027.94
2023-05-11T08:45:05.487Z,99021.78
2023-05-11T08:47:32.626Z,99041.19
2023-05-11T08:49:59.371Z,99097.69
2023-05-11T08:52:26.733Z,99127.41
2023-05-11T08:54:54.124Z,99128.84
2023-05-11T08:57:20.971Z,99132.69
2023-05-11T08:59:48.629Z,99149.22
2023-05-11T09:02:19.710Z,99147.59
2023-05-11T09:04:48.760Z,99151.31
2023-05-11T09:07:17.098Z,99152.94
2023-05-11T09:09:44.382Z,99154.13
2023-05-11T09:12:13.421Z,99156.44
2023-05-11T09:14:40.202Z,99158.28
2023-05-11T09:17:07.151Z,99159.66
2023-05-11T09:19:34.022Z,99154.13
2023-05-11T09:22:01.036Z,99145.06
2023-05-11T09:24:28.471Z,99148.09
2023-05-11T09:27:09.191Z,99135.28
2023-05-11T09:29:36.167Z,99120.06
2023-05-11T09:32:03.107Z,99103.59
2023-05-11T09:34:29.713Z,99101.31
2023-05-11T09:36:57.336Z,99107.06
2023-05-11T09:39:47.300Z,99106.91
2023-05-11T09:42:24.062Z,99122.34
2023-05-11T09:44:50.473Z,99129.19
2023-05-11T09:47:20.148Z,99120.53
2023-05-11T09:49:47.467Z,99117.66
2023-05-11T09:52:18.747Z,99107.78
2023-05-11T09:54:48.405Z,99115.66
2023-05-11T09:57:30.172Z,99130.91
2023-05-11T10:00:00.738Z,99142.66
2023-05-11T10:02:28.189Z,99131.78
2023-05-11T10:05:02.520Z,99142.50
2023-05-11T10:07:33.744Z,99157.97
2023-05-11T10:10:08.752Z,99157.97
2023-05-11T10:12:36.468Z,99160.50
2023-05-11T10:15:05.518Z,99171.38
2023-05-11T10:17:33.122Z,99162.56
2023-05-11T10:20:01.205Z,99122.75
2023-05-11T10:22:29.936Z,99085.94
2023-05-11T10:24:58.054Z,99085.94
2023-05-11T10:27:25.387Z,99098.34
2023-05-11T10:29:55.949Z,99126.84
2023-05-11T10:32:22.882Z,99141.25
2023-05-11T10:34:49.466Z,99155.69
2023-05-11T10:37:20.862Z,99159.81
2023-05-11T10:39:50.100Z,99161.25
2023-05-11T10:42:32.633Z,99130.09
2023-05-11T10:45:30.662Z,99114.41
2023-05-11T10:48:32.933Z,99130.91
2023-05-11T10:51:34.251Z,99130.66
2023-05-11T10:54:22.486Z,99093.28
2023-05-11T10:57:01.428Z,99080.81
2023-05-11T10:59:37.562Z,99092.16
2023-05-11T11:02:04.430Z,99116.28
2023-05-11T11:04:51.705Z,99104.34
2023-05-11T11:07:20.396Z,99120.84
2023-05-11T11:09:57.226Z,99140.25
2023-05-11T11:12:26.223Z,99143.31
2023-05-11T11:15:04.043Z,99134.06
2023-05-11T11:17:35.504Z,99120.63
2023-05-11T11:20:05.088Z,99140.03
2023-05-11T11:22:37.759Z,99132.59
2023-05-11T11:25:07.315Z,99129.91
2023-05-11T11:27:46.153Z,99107.66
2023-05-11T11:30:29.443Z,99085.34
2023-05-11T11:33:08.184Z,99096.09
2023-05-11T11:35:41.596Z,99108.03
2023-05-11T11:38:13.932Z,99115.47
2023-05-11T11:40:51.642Z,99123.06
2023-05-11T11:43:19.758Z,99104.34
2023-05-11T11:46:03.229Z,99095.16
2023-05-11T11:48:35.714Z,99079.72
2023-05-11T11:51:09.304Z,99058.63
2023-05-11T11:53:38.942Z,99087.34
2023-05-11T11:56:07.541Z,99083.59
2023-05-11T11:58:57.742Z,99059.03
2023-05-11T12:01:27.349Z,99075.75
2023-05-11T12:04:04.793Z,99091.06
2023-05-11T12:06:39.688Z,99055.28
2023-05-11T12:09:07.075Z,99036.47
2023-05-11T12:11:34.295Z,99012.19
2023-05-11T12:14:02.820Z,98999.81
2023-05-11T12:16:29.955Z,98987.88
2023-05-11T12:19:01.764Z,99008.56
2023-05-11T12:21:32.026Z,99022.94
2023-05-11T12:24:01.220Z,98956.16
2023-05-11T12:26:29.697Z,98970.06
2023-05-11T12:29:17.498Z,98938.03
2023-05-11T12:31:46.134Z,98927.38
2023-05-11T12:34:17.360Z,98906.59
2023-05-11T12:36:49.289Z,98915.69
2023-05-11T12:39:24.837Z,98870.09
2023-05-11T12:41:53.798Z,98853.66
2023-05-11T12:44:24.049Z,98879.88
2023-05-11T12:46:51.983Z,98867.75
2023-05-11T12:49:25.873Z,98889.63
2023-05-11T12:51:59.555Z,98919.84
2023-05-11T12:54:37.230Z,98917.16
2023-05-11T12:57:05.550Z,98863.53
2023-05-11T12:59:35.430Z,98874.13
2023-05-11T13:02:16.399Z,98805.50
2023-05-11T13:04:44.325Z,98810.75
2023-05-11T13:07:11.919Z,98770.59
2023-05-11T13:09:41.728Z,98769.00
2023-05-11T13:12:10.343Z,98728.75
2023-05-11T13:14:37.433Z,98776.91
2023-05-11T13:17:04.450Z,98826.94
2023-05-11T13:19:32.322Z,98749.88
2023-05-11T13:21:59.373Z,98771.16
2023-05-11T13:24:26.685Z,98746.16
2023-05-11T13:26:54.203Z,98745.91
2023-05-11T13:29:21.020Z,98727.53
2023-05-11T13:31:53.160Z,98765.25
2023-05-11T13:34:20.486Z,98797.38
2023-05-11T13:36:47.886Z,98762.59
2023-05-11T13:39:14.954Z,98725.81
2023-05-11T13:41:41.488Z,98762.47
2023-05-11T13:44:08.244Z,98781.75
2023-05-11T13:46:35.832Z,98746.34
2023-05-11T13:49:02.587Z,98763.22
2023-05-11T13:51:30.421Z,98774.69
2023-05-11T13:53:57.004Z,98703.97
2023-05-11T13:56:23.565Z,98696.53
2023-05-11T13:58:54.573Z,98667.88
2023-05-11T14:01:21.873Z,98678.50
2023-05-11T14:03:56.058Z,98683.44
2023-05-11T14:06:24.053Z,98669.38
2023-05-11T14:08:51.136Z,98637.19
2023-05-11T14:11:17.789Z,98615.66
2023-05-11T14:13:44.296Z,98592.59
2023-05-11T14:16:10.884Z,98608.59
2023-05-11T14:18:37.508Z,98650.94
2023-05-11T14:21:04.459Z,98641.94
2023-05-11T14:23:31.183Z,98605.22
2023-05-11T14:25:57.957Z,98592.03
2023-05-11T14:28:24.448Z,98634.16
2023-05-11T14:30:53.460Z,98579.34
2023-05-11T14:33:20.272Z,98555.66
2023-05-11T14:35:48.286Z,98542.28
2023-05-11T14:38:15.500Z,98553.03
2023-05-11T14:40:42.222Z,98556.16
2023-05-11T14:43:09.243Z,98553.91
2023-05-11T14:45:36.942Z,98560.75
2023-05-11T14:48:04.268Z,98544.34
2023-05-11T14:50:31.084Z,98558.84
2023-05-11T14:52:57.655Z,98566.03
2023-05-11T14:55:27.308Z,98514.31
2023-05-11T14:57:53.759Z,98496.78
2023-05-11T15:00:20.816Z,98516.09
2023-05-11T15:02:48.532Z,98513.88
2023-05-11T15:05:15.311Z,98531.03
2023-05-11T15:07:44.782Z,98484.41
2023-05-11T15:10:11.549Z,98492.22
2023-05-11T15:12:38.270Z,98485.09
2023-05-11T15:15:05.398Z,98468.00
2023-05-11T15:17:31.944Z,98483.91
2023-05-11T15:19:58.385Z,98538.31
2023-05-11T15:22:24.976Z,98511.44
2023-05-11T15:24:51.812Z,98480.75
2023-05-11T15:27:18.440Z,98535.25
2023-05-11T15:29:45.144Z,98528.66
2023-05-11T15:32:15.319Z,98512.72
2023-05-11T15:34:55.479Z,98522.69
2023-05-11T15:37:25.844Z,98509.28
2023-05-11T15:39:52.365Z,98516.09
2023-05-11T15:42:19.178Z,98492.81
2023-05-11T15:44:45.700Z,98488.13
2023-05-11T15:47:12.389Z,98491.41
2023-05-11T15:49:40.304Z,98491.75
2023-05-11T15:52:07.725Z,98513.03
2023-05-11T15:54:36.212Z,98510.31
2023-05-11T15:57:03.242Z,98491.16
2023-05-11T15:59:29.876Z,98492.34
2023-05-11T16:01:56.661Z,98523.69
2023-05-11T16:04:24.602Z,98521.47
2023-05-11T16:06:51.264Z,98511.84
2023-05-11T16:09:18.080Z,98513.03
2023-05-11T16:11:44.926Z,98525.88
2023-05-11T16:14:13.107Z,98543.03
2023-05-11T16:16:39.704Z,98551.19
2023-05-11T16:19:06.630Z,98571.16
2023-05-11T16:21:33.832Z,98598.56
2023-05-11T16:24:00.350Z,98563.81
2023-05-11T16:26:27.161Z,98543.97
2023-05-11T16:28:54.523Z,98547.94
2023-05-11T16:31:21.464Z,98574.34
2023-05-11T16:33:48.422Z,98547.66
2023-05-11T16:36:15.237Z,98577.84
2023-05-11T16:38:42.253Z,98615.03
2023-05-11T16:41:09.107Z,98621.28
2023-05-11T16:43:38.122Z,98634.53
2023-05-11T16:46:04.818Z,98636.16
2023-05-11T16:48:34.751Z,98684.19
2023-05-11T16:51:01.611Z,98746.75
2023-05-11T16:53:28.170Z,98843.63
2023-05-11T16:55:55.682Z,98864.59
2023-05-11T16:58:23.269Z,98918.00
2023-05-11T17:00:50.998Z,98968.59
2023-05-11T17:03:18.900Z,98962.06
2023-05-11T17:05:45.883Z,98971.16
2023-05-11T17:08:13.367Z,98986.03
2023-05-11T17:10:50.037Z,99029.41
2023-05-11T17:13:17.722Z,99029.66
2023-05-11T17:15:44.579Z,99087.22
2023-05-11T17:18:14.170Z,99099.38
2023-05-11T17:20:51.514Z,99135.69
2023-05-11T17:23:18.446Z,99207.97
2023-05-11T17:25:45.327Z,99267.06
2023-05-11T17:28:12.541Z,99035.00
2023-05-11T17:30:48.050Z,99032.31
2023-05-11T17:33:15.697Z,99033.75
2023-05-11T17:35:42.897Z,99033.78
2023-05-11T17:38:09.810Z,99033.16
2023-05-11T17:40:36.519Z,99030.69
2023-05-11T17:43:03.389Z,99029.66
2023-05-11T17:45:31.042Z,99032.56
2023-05-11T17:48:00.687Z,99038.72
2023-05-11T17:50:27.165Z,99025.56
2023-05-11T17:52:53.636Z,99038.09
2023-05-11T17:55:20.560Z,99046.53
2023-05-11T17:57:47.682Z,99033.94
2023-05-11T18:00:15.156Z,99030.84
2023-05-11T18:02:41.734Z,99026.66
2023-05-11T18:05:08.861Z,99026.72
2023-05-11T18:07:35.290Z,99029.19
2023-05-11T18:10:01.829Z,99039.91
2023-05-11T18:12:28.918Z,99048.97
2023-05-11T18:14:55.416Z,99051.78
2023-05-11T18:17:21.940Z,99047.00
2023-05-11T18:19:49.192Z,99047.97
2023-05-11T18:22:15.786Z,99055.03
2023-05-11T18:24:42.368Z,99052.13
2023-05-11T18:27:08.835Z,99046.94
2023-05-11T18:29:35.454Z,99045.94
2023-05-11T18:32:04.812Z,99041.38
2023-05-11T18:34:31.759Z,99053.88
2023-05-11T18:36:58.919Z,99050.59
2023-05-11T18:39:25.486Z,99044.84
2023-05-11T18:41:52.372Z,99043.00
2023-05-11T18:44:18.911Z,99045.44
2023-05-11T18:46:46.351Z,99052.09
2023-05-11T18:49:13.190Z,99057.38
2023-05-11T18:51:39.844Z,99042.53
2023-05-11T18:54:06.677Z,99033.50
2023-05-11T18:56:33.296Z,99041.47
2023-05-11T18:58:59.890Z,99024.38
2023-05-11T19:01:36.229Z,99024.97
2023-05-11T19:04:14.792Z,99019.63
2023-05-11T19:06:41.475Z,99018.16
2023-05-11T19:09:08.122Z,99027.25
2023-05-11T19:11:36.168Z,99027.25
2023-05-11T19:14:02.995Z,99040.00
2023-05-11T19:16:29.455Z,99044.09
2023-05-11T19:18:56.444Z,99037.44
2023-05-11T19:21:23.433Z,99033.91
2023-05-11T19:23:49.940Z,99027.91
2023-05-11T19:26:16.393Z,99020.28
2023-05-11T19:28:42.962Z,99022.78
2023-05-11T19:31:09.747Z,99021.75
2023-05-11T19:33:37.268Z,99018.03
2023-05-11T19:36:03.871Z,99018.25
2023-05-11T19:38:31.806Z,99019.06
2023-05-11T19:40:59.587Z,99017.81
2023-05-11T19:43:26.113Z,99011.84
2023-05-11T19:45:54.590Z,99008.50
2023-05-11T19:48:21.151Z,99001.50
2023-05-11T19:50:48.482Z,98985.19
2023-05-11T19:53:17.743Z,98974.06
2023-05-11T19:55:46.590Z,98957.44
2023-05-11T19:58:15.349Z,98950.22
2023-05-11T20:00:42.393Z,98943.59
2023-05-11T20:03:09.187Z,98951.44
2023-05-11T20:05:35.999Z,98952.47
2023-05-11T20:08:02.609Z,98952.88
2023-05-11T20:10:30.545Z,98952.00
2023-05-11T20:12:57.152Z,98956.97
2023-05-11T20:15:24.064Z,98954.28
2023-05-11T20:17:50.825Z,98950.63
2023-05-11T20:20:17.899Z,98941.38
2023-05-11T20:22:46.566Z,98942.59
2023-05-11T20:25:18.366Z,98942.19
2023-05-11T20:27:47.268Z,98948.13
2023-05-11T20:30:14.693Z,98947.06
2023-05-11T20:34:06.925Z,98953.25
2023-05-11T20:35:28.369Z,98946.66
2023-05-11T20:37:54.983Z,98942.19
2023-05-11T20:40:21.892Z,98946.28
2023-05-11T20:42:48.524Z,98945.28
2023-05-11T20:45:16.970Z,98947.69
2023-05-11T20:47:44.959Z,98943.19
2023-05-11T20:50:11.674Z,98946.88
2023-05-11T20:52:38.324Z,98949.16
2023-05-11T20:55:06.185Z,98953.09
2023-05-11T20:57:33.929Z,98950.22
2023-05-11T21:02:30.340Z,98923.25
2023-05-11T21:04:57.050Z,98910.91
2023-05-11T21:07:23.881Z,98897.75
2023-05-11T21:09:50.563Z,98876.75
2023-05-11T21:12:16.896Z,98867.28
2023-05-11T21:14:46.155Z,98851.44
2023-05-11T21:17:13.023Z,98854.09
2023-05-11T21:19:39.630Z,98831.47
2023-05-11T21:22:07.668Z,98837.22
2023-05-11T21:24:37.706Z,98817.66
2023-05-11T21:27:05.057Z,98797.53
2023-05-11T21:29:32.096Z,98781.50
2023-05-11T21:31:59.005Z,98779.22
2023-05-11T21:34:26.818Z,98769.13
2023-05-11T21:36:54.785Z,98757.75
2023-05-11T21:39:21.436Z,98748.06
2023-05-11T21:41:48.163Z,98745.97
2023-05-11T21:44:14.670Z,98734.84
2023-05-11T21:46:41.306Z,98723.97
2023-05-11T21:49:07.992Z,98701.75
2023-05-11T21:51:34.588Z,98694.75
2023-05-11T21:54:01.740Z,98680.16
2023-05-11T21:56:29.299Z,98676.47
2023-05-11T21:58:58.048Z,98669.91
2023-05-11T22:01:24.578Z,98658.19
2023-05-11T22:03:51.653Z,98653.47
2023-05-11T22:06:19.471Z,98652.84
2023-05-11T22:08:48.533Z,98652.81
2023-05-11T22:11:15.480Z,98646.25
2023-05-11T22:13:42.004Z,98644.59
2023-05-11T22:16:08.514Z,98646.66
2023-05-11T22:18:35.638Z,98646.66
2023-05-11T22:21:02.235Z,98642.50
2023-05-11T22:23:28.708Z,98640.03
2023-05-11T22:25:55.210Z,98638.63
2023-05-11T22:28:22.155Z,98641.69
2023-05-11T22:30:48.829Z,98640.81
2023-05-11T22:33:15.626Z,98636.34
2023-05-11T22:35:42.626Z,98635.06
2023-05-11T22:38:09.140Z,98638.38
2023-05-11T22:40:35.969Z,98637.97
2023-05-11T22:43:02.801Z,98637.94
2023-05-11T22:45:29.354Z,98644.50
2023-05-11T22:47:57.606Z,98642.66
2023-05-11T22:50:31.438Z,98633.00
2023-05-11T22:52:58.081Z,98629.31
2023-05-11T22:55:25.056Z,98631.97
2023-05-11T22:57:52.477Z,98624.78
2023-05-11T23:00:19.898Z,98618.44
2023-05-11T23:02:46.870Z,98621.94
2023-05-11T23:05:13.749Z,98619.28
2023-05-11T23:07:41.560Z,98618.06
2023-05-11T23:10:08.373Z,98626.47
2023-05-11T23:12:35.112Z,98619.94
2023-05-11T23:15:02.027Z,98619.72
2023-05-11T23:17:28.716Z,98621.16
2023-05-11T23:19:55.577Z,98627.72
2023-05-11T23:22:22.293Z,98628.53
2023-05-11T23:24:48.801Z,98626.69
2023-05-11T23:27:16.909Z,98629.19
2023-05-11T23:29:43.533Z,98629.75
2023-05-11T23:32:10.439Z,98625.69
2023-05-11T23:34:37.320Z,98624.25
2023-05-11T23:37:03.959Z,98623.88
2023-05-11T23:39:30.882Z,98622.00
2023-05-11T23:41:57.303Z,98623.88
2023-05-11T23:44:23.897Z,98632.94
2023-05-11T23:46:50.742Z,98642.34
2023-05-11T23:49:17.451Z,98643.75
2023-05-11T23:51:44.304Z,98639.97
2023-05-11T23:54:14.044Z,98636.50
2023-05-11T23:56:40.822Z,98632.78
2023-05-11T23:59:07.439Z,98624.78
